Etusivu
METAR-TAF:

METAR-TAF

Lentoasemat :

Havanna, Kuuba

Leveyspiiri: 22-59N, Pituuspiiri: 082-24W, korkeus merenpinnasta: 59 m

Tämänhetkinen sää

Tämä raportti tehtiin 41 minuuttia sitten, kello 10.55 UTC
Tuuli 6 kn pohjoisesta/koillisesta
Lämpötila 16°C
Kosteus 68%
Ilmanpaine 1023 hPa
Näkyvyys: 9000 m
Hajanaisia pilviä 3500 ft:n korkeudessa

METAR: MUHA 111055Z 02006KT 9000 SCT035 16/10 Q1023

Aika: 06:36 (11:36 UTC)

Sääennuste

Tämä raportti tehtiin 6 tuntia ja 36 minuuttia sitten, kello 05.00 UTC
Ennuste voimassa 11. päivästä klo 06 UTC - 12. päivään klo 06 UTC
Tuuli 10 kn pohjoisesta/koillisesta
Näkyvyys: 9000 m
Muutamia pilviä 3000 ft:n korkeudessa

TAF: MUHA 110500Z 1106/1206 02010KT 9000 FEW030

Säähavainnot ja -ennusteet yli 4000 lentoasemalta (METAR- ja TAF-raportit).

Käytössä olevat sääasemat on merkitty karttaan keltaisilla ja punaisilla pisteillä.

Aseta hiiri pisteen päälle nähdäksesi sääaseman nimen.

Klikkaa sitten nähdäksesi säähavainnot ja -ennusteet.

Kartan vaihtaminen: klikkaa mustalla rastilla varustettuja vihreitä pisteitä, niin voit zoomata sisään; viivalla varustettua vihreää pistettä, niin voit zoomata ulos tai vihreitä nuolia, niin pääset viereisille kartoille.


METAR-TAF: